createdAt,value
2017-07-18T00:01:35.882Z,19.07
2017-07-18T00:04:04.647Z,18.97
2017-07-18T00:06:32.439Z,18.89
2017-07-18T00:09:00.224Z,18.85
2017-07-18T00:11:27.953Z,18.92
2017-07-18T00:13:55.753Z,18.96
2017-07-18T00:16:23.546Z,18.88
2017-07-18T00:18:51.383Z,18.89
2017-07-18T00:21:19.858Z,18.73
2017-07-18T00:23:47.767Z,18.55
2017-07-18T00:26:15.543Z,18.63
2017-07-18T00:28:43.362Z,18.74
2017-07-18T00:31:11.198Z,18.71
2017-07-18T00:33:39.051Z,18.66
2017-07-18T00:36:06.826Z,18.49
2017-07-18T00:38:34.838Z,18.46
2017-07-18T00:41:02.552Z,18.64
2017-07-18T00:43:30.325Z,18.68
2017-07-18T00:45:58.065Z,18.91
2017-07-18T00:48:25.826Z,18.86
2017-07-18T00:50:53.683Z,18.60
2017-07-18T00:53:21.488Z,18.37
2017-07-18T00:55:49.320Z,18.39
2017-07-18T00:58:17.071Z,18.29
2017-07-18T01:00:44.932Z,18.34
2017-07-18T01:03:12.878Z,18.37
2017-07-18T01:05:40.808Z,18.23
2017-07-18T01:08:08.487Z,18.01
2017-07-18T01:10:36.220Z,17.99
2017-07-18T01:13:03.919Z,17.96
2017-07-18T01:15:31.657Z,17.99
2017-07-18T01:17:59.369Z,18.07
2017-07-18T01:20:27.201Z,18.04
2017-07-18T01:22:55.004Z,17.96
2017-07-18T01:25:22.748Z,17.92
2017-07-18T01:27:50.538Z,17.99
2017-07-18T01:30:18.316Z,17.93
2017-07-18T01:32:46.086Z,17.78
2017-07-18T01:35:13.901Z,17.66
2017-07-18T01:37:41.686Z,17.64
2017-07-18T01:40:09.436Z,17.67
2017-07-18T01:42:37.160Z,17.61
2017-07-18T01:45:04.981Z,17.58
2017-07-18T01:47:32.693Z,17.49
2017-07-18T01:50:00.440Z,17.51
2017-07-18T01:52:28.142Z,17.51
2017-07-18T01:54:55.941Z,17.57
2017-07-18T01:57:23.815Z,17.56
2017-07-18T01:59:51.713Z,17.56
2017-07-18T02:02:19.528Z,17.54
2017-07-18T02:04:47.372Z,17.50
2017-07-18T02:07:15.107Z,17.47
2017-07-18T02:09:42.843Z,17.39
2017-07-18T02:12:10.549Z,17.37
2017-07-18T02:14:38.336Z,17.52
2017-07-18T02:17:06.070Z,17.55
2017-07-18T02:19:34.075Z,17.61
2017-07-18T02:22:01.936Z,17.66
2017-07-18T02:24:29.762Z,17.37
2017-07-18T02:26:57.618Z,17.38
2017-07-18T02:29:25.461Z,17.56
2017-07-18T02:31:53.253Z,17.43
2017-07-18T02:34:21.121Z,17.44
2017-07-18T02:36:48.916Z,17.35
2017-07-18T02:39:16.701Z,17.32
2017-07-18T02:41:44.425Z,17.16
2017-07-18T02:44:12.163Z,16.99
2017-07-18T02:46:40.002Z,17.03
2017-07-18T02:49:07.926Z,17.10
2017-07-18T02:51:35.844Z,17.09
2017-07-18T02:54:03.739Z,17.09
2017-07-18T02:56:31.516Z,16.99
2017-07-18T02:58:59.319Z,16.91
2017-07-18T03:01:27.171Z,16.76
2017-07-18T03:03:54.998Z,16.83
2017-07-18T03:06:22.839Z,16.98
2017-07-18T03:08:50.585Z,17.10
2017-07-18T03:11:18.539Z,17.14
2017-07-18T03:13:46.335Z,17.18
2017-07-18T03:16:14.062Z,17.04
2017-07-18T03:18:41.787Z,17.10
2017-07-18T03:21:09.502Z,17.07
2017-07-18T03:23:37.173Z,16.97
2017-07-18T03:26:04.973Z,16.91
2017-07-18T03:28:32.676Z,16.67
2017-07-18T03:31:00.424Z,16.71
2017-07-18T03:33:28.293Z,16.42
2017-07-18T03:35:56.153Z,16.23
2017-07-18T03:38:24.054Z,16.16
2017-07-18T03:40:51.959Z,16.04
2017-07-18T03:43:19.922Z,15.99
2017-07-18T03:45:47.670Z,16.11
2017-07-18T03:48:15.467Z,16.18
2017-07-18T03:50:43.326Z,16.03
2017-07-18T03:53:11.098Z,16.12
2017-07-18T03:55:38.889Z,15.98
2017-07-18T03:58:06.677Z,15.98
2017-07-18T04:00:34.445Z,15.88
2017-07-18T04:03:02.415Z,15.84
2017-07-18T04:05:30.234Z,15.79
2017-07-18T04:07:58.131Z,15.75
2017-07-18T04:10:25.938Z,15.86
2017-07-18T04:12:53.736Z,15.98
2017-07-18T04:15:21.413Z,16.03
2017-07-18T04:17:49.174Z,16.20
2017-07-18T04:20:16.920Z,16.28
2017-07-18T04:22:44.629Z,16.37
2017-07-18T04:25:12.351Z,16.27
2017-07-18T04:27:40.250Z,16.46
2017-07-18T04:30:08.023Z,16.37
2017-07-18T04:32:35.926Z,16.25
2017-07-18T04:35:03.910Z,16.17
2017-07-18T04:37:31.704Z,16.25
2017-07-18T04:39:59.690Z,16.23
2017-07-18T04:42:27.428Z,16.50
2017-07-18T04:44:55.370Z,16.63
2017-07-18T04:47:23.159Z,16.77
2017-07-18T04:49:51.048Z,16.78
2017-07-18T04:52:18.953Z,16.68
2017-07-18T04:54:46.640Z,16.68
2017-07-18T04:57:14.537Z,16.70
2017-07-18T04:59:42.484Z,16.71
2017-07-18T05:02:10.420Z,16.69
2017-07-18T05:04:38.154Z,16.71
2017-07-18T05:07:05.878Z,16.81
2017-07-18T05:09:33.725Z,16.94
2017-07-18T05:12:01.452Z,17.12
2017-07-18T05:14:29.135Z,17.24
2017-07-18T05:16:56.883Z,17.33
2017-07-18T05:19:24.660Z,17.43
2017-07-18T05:21:52.382Z,17.57
2017-07-18T05:24:20.081Z,17.63
2017-07-18T05:26:47.830Z,17.71
2017-07-18T05:29:15.550Z,17.77
2017-07-18T05:31:43.357Z,17.77
2017-07-18T05:34:11.049Z,17.82
2017-07-18T05:36:38.769Z,17.82
2017-07-18T05:39:06.497Z,17.91
2017-07-18T05:41:34.289Z,17.93
2017-07-18T05:44:02.017Z,18.03
2017-07-18T05:46:29.765Z,18.16
2017-07-18T05:48:57.588Z,18.31
2017-07-18T05:51:25.341Z,18.42
2017-07-18T05:53:53.059Z,18.49
2017-07-18T05:56:20.760Z,18.56
2017-07-18T05:58:48.485Z,18.64
2017-07-18T06:01:16.157Z,18.72
2017-07-18T06:03:43.872Z,18.76
2017-07-18T06:06:11.541Z,18.81
2017-07-18T06:08:39.271Z,18.83
2017-07-18T06:11:06.924Z,18.94
2017-07-18T06:13:34.641Z,18.96
2017-07-18T06:16:02.277Z,18.96
2017-07-18T06:18:30.002Z,19.01
2017-07-18T06:20:57.797Z,19.12
2017-07-18T06:23:25.566Z,19.21
2017-07-18T06:25:53.263Z,19.31
2017-07-18T06:28:20.951Z,19.42
2017-07-18T06:30:48.853Z,19.47
2017-07-18T06:33:16.548Z,19.51
2017-07-18T06:35:44.215Z,19.55
2017-07-18T06:38:11.963Z,19.61
2017-07-18T06:40:39.708Z,19.66
2017-07-18T06:43:07.510Z,19.67
2017-07-18T06:45:35.333Z,19.68
2017-07-18T06:48:03.095Z,19.74
2017-07-18T06:50:30.834Z,19.79
2017-07-18T06:52:58.682Z,19.82
2017-07-18T06:55:26.479Z,19.85
2017-07-18T06:57:54.236Z,19.87
2017-07-18T07:00:22.323Z,19.92
2017-07-18T07:02:49.974Z,19.99
2017-07-18T07:05:17.736Z,20.07
2017-07-18T07:07:45.367Z,20.14
2017-07-18T07:10:13.070Z,20.21
2017-07-18T07:12:40.705Z,20.25
2017-07-18T07:15:08.393Z,20.30
2017-07-18T07:17:36.068Z,20.27
2017-07-18T07:20:03.776Z,20.29
2017-07-18T07:22:32.093Z,20.32
2017-07-18T07:24:59.761Z,20.32
2017-07-18T07:27:27.411Z,20.33
2017-07-18T07:29:55.761Z,20.38
2017-07-18T07:32:23.428Z,20.43
2017-07-18T07:34:51.535Z,20.53
2017-07-18T07:37:19.287Z,20.67
2017-07-18T07:39:46.909Z,20.79
2017-07-18T07:42:14.566Z,20.91
2017-07-18T07:44:42.340Z,21.04
2017-07-18T07:47:09.982Z,21.12
2017-07-18T07:49:37.624Z,21.14
2017-07-18T07:52:05.525Z,21.22
2017-07-18T07:54:33.790Z,21.29
2017-07-18T07:57:01.845Z,21.33
2017-07-18T07:59:29.573Z,21.44
2017-07-18T08:01:57.344Z,21.50
2017-07-18T08:04:25.173Z,21.57
2017-07-18T08:06:52.836Z,21.62
2017-07-18T08:09:20.488Z,21.71
2017-07-18T08:11:48.180Z,21.72
2017-07-18T08:14:15.909Z,21.77
2017-07-18T08:16:43.753Z,21.83
2017-07-18T08:19:11.457Z,21.86
2017-07-18T08:21:39.442Z,21.92
2017-07-18T08:24:07.235Z,21.93
2017-07-18T08:26:35.017Z,22.13
2017-07-18T08:29:02.647Z,22.27
2017-07-18T08:31:30.292Z,22.38
2017-07-18T08:33:57.943Z,22.35
2017-07-18T08:36:25.594Z,22.38
2017-07-18T08:38:53.192Z,22.42
2017-07-18T08:41:20.881Z,22.49
2017-07-18T08:43:48.500Z,22.69
2017-07-18T08:46:16.339Z,22.71
2017-07-18T08:48:44.018Z,22.76
2017-07-18T08:51:11.672Z,22.81
2017-07-18T08:53:39.308Z,22.89
2017-07-18T08:56:07.034Z,22.99
2017-07-18T08:58:34.656Z,23.07
2017-07-18T09:01:02.302Z,23.01
2017-07-18T09:03:29.922Z,22.94
2017-07-18T09:05:57.699Z,22.96
2017-07-18T09:08:25.330Z,23.27
2017-07-18T09:10:53.012Z,23.45
2017-07-18T09:13:20.631Z,23.52
2017-07-18T09:15:48.287Z,23.46
2017-07-18T09:18:15.953Z,23.37
2017-07-18T09:20:43.714Z,23.33
2017-07-18T09:23:12.473Z,23.24
2017-07-18T09:25:40.119Z,23.40
2017-07-18T09:28:07.735Z,23.47
2017-07-18T09:30:35.441Z,23.53
2017-07-18T09:33:03.390Z,23.64
2017-07-18T09:35:31.021Z,23.64
2017-07-18T09:37:58.695Z,23.66
2017-07-18T09:40:26.371Z,23.71
2017-07-18T09:42:54.370Z,23.76
2017-07-18T09:45:22.035Z,23.81
2017-07-18T09:47:49.948Z,23.84
2017-07-18T09:50:17.772Z,23.86
2017-07-18T09:52:45.687Z,23.89
2017-07-18T09:55:13.500Z,24.13
2017-07-18T09:57:41.181Z,24.44
2017-07-18T10:00:08.921Z,24.56
2017-07-18T10:02:36.677Z,24.68
2017-07-18T10:05:04.420Z,24.70
2017-07-18T10:07:32.188Z,24.73
2017-07-18T10:09:59.863Z,24.81
2017-07-18T10:12:27.667Z,24.96
2017-07-18T10:14:55.298Z,25.01
2017-07-18T10:17:23.126Z,25.07
2017-07-18T10:19:50.909Z,25.06
2017-07-18T10:22:18.687Z,25.34
2017-07-18T10:24:46.343Z,25.39
2017-07-18T10:27:13.982Z,25.56
2017-07-18T10:29:41.733Z,25.68
2017-07-18T10:32:09.432Z,25.83
2017-07-18T10:34:37.135Z,26.02
2017-07-18T10:37:04.797Z,26.09
2017-07-18T10:39:32.602Z,26.18
2017-07-18T10:42:00.420Z,26.30
2017-07-18T10:44:28.119Z,26.44
2017-07-18T10:46:55.729Z,26.55
2017-07-18T10:49:23.386Z,26.73
2017-07-18T10:51:51.093Z,26.83
2017-07-18T10:54:18.734Z,26.92
2017-07-18T10:56:46.340Z,27.03
2017-07-18T10:59:14.066Z,27.19
2017-07-18T11:01:41.688Z,27.33
2017-07-18T11:04:09.340Z,27.52
2017-07-18T11:06:36.964Z,27.64
2017-07-18T11:09:04.711Z,27.75
2017-07-18T11:11:32.333Z,27.82
2017-07-18T11:13:59.981Z,27.78
2017-07-18T11:16:27.595Z,27.93
2017-07-18T11:18:55.320Z,27.89
2017-07-18T11:21:22.936Z,28.11
2017-07-18T11:23:50.577Z,28.25
2017-07-18T11:26:18.238Z,28.24
2017-07-18T11:28:45.865Z,28.44
2017-07-18T11:31:13.556Z,28.60
2017-07-18T11:33:41.382Z,28.64
2017-07-18T11:36:09.067Z,28.67
2017-07-18T11:38:36.834Z,28.85
2017-07-18T11:41:04.959Z,29.01
2017-07-18T11:43:32.838Z,29.07
2017-07-18T11:46:00.874Z,29.17
2017-07-18T11:48:29.064Z,29.23
2017-07-18T11:50:56.961Z,29.20
2017-07-18T11:53:24.808Z,29.20
2017-07-18T11:55:52.830Z,29.39
2017-07-18T11:58:21.105Z,29.57
2017-07-18T12:00:48.959Z,29.70
2017-07-18T12:03:17.229Z,29.85
2017-07-18T12:05:45.037Z,29.89
2017-07-18T12:08:13.170Z,30.01
2017-07-18T12:10:41.090Z,30.16
2017-07-18T12:13:09.247Z,30.24
2017-07-18T12:15:37.306Z,30.23
2017-07-18T12:18:05.243Z,30.19
2017-07-18T12:20:33.306Z,29.93
2017-07-18T12:23:01.146Z,30.10
2017-07-18T12:25:28.808Z,29.99
2017-07-18T12:27:56.904Z,29.87
2017-07-18T12:30:24.741Z,29.70
2017-07-18T12:32:53.387Z,29.59
2017-07-18T12:35:21.475Z,29.51
2017-07-18T12:37:49.302Z,29.43
2017-07-18T12:40:17.145Z,29.14
2017-07-18T12:42:44.899Z,29.32
2017-07-18T12:45:14.131Z,29.43
2017-07-18T12:47:42.292Z,29.48
2017-07-18T12:50:10.138Z,29.60
2017-07-18T12:52:37.875Z,29.59
2017-07-18T12:55:05.697Z,29.68
2017-07-18T12:57:33.563Z,29.73
2017-07-18T13:00:01.413Z,29.76
2017-07-18T13:02:29.146Z,29.72
2017-07-18T13:04:56.794Z,29.60
2017-07-18T13:07:24.473Z,29.73
2017-07-18T13:09:52.124Z,29.94
2017-07-18T13:12:19.820Z,30.09
2017-07-18T13:14:47.483Z,30.15
2017-07-18T13:17:15.187Z,30.22
2017-07-18T13:19:42.849Z,30.27
2017-07-18T13:22:10.546Z,30.30
2017-07-18T13:24:38.219Z,30.13
2017-07-18T13:27:05.925Z,30.29
2017-07-18T13:29:33.693Z,30.48
2017-07-18T13:32:01.738Z,30.67
2017-07-18T13:34:29.774Z,30.90
2017-07-18T13:36:58.039Z,30.93
2017-07-18T13:39:26.083Z,31.02
2017-07-18T13:41:54.345Z,31.14
2017-07-18T13:44:22.179Z,31.31
2017-07-18T13:46:50.661Z,31.24
2017-07-18T13:49:19.329Z,31.09
2017-07-18T13:51:49.801Z,30.99
2017-07-18T13:54:18.275Z,31.22
2017-07-18T13:56:46.730Z,31.56
2017-07-18T13:59:15.520Z,31.73
2017-07-18T14:01:53.914Z,31.80
2017-07-18T14:04:22.299Z,32.08
2017-07-18T14:06:51.043Z,32.26
2017-07-18T14:09:19.479Z,32.42
2017-07-18T14:11:48.789Z,32.49
2017-07-18T14:14:17.293Z,32.69
2017-07-18T14:16:45.920Z,32.29
2017-07-18T14:19:16.874Z,31.91
2017-07-18T14:21:47.104Z,32.13
2017-07-18T14:24:16.288Z,32.44
2017-07-18T14:26:44.292Z,32.53
2017-07-18T14:32:01.786Z,33.44
2017-07-18T14:57:26.743Z,34.75
2017-07-18T15:00:02.440Z,34.55
2017-07-18T15:08:31.235Z,34.56
2017-07-18T15:31:08.140Z,34.29
2017-07-18T15:42:11.991Z,34.31
2017-07-18T16:36:29.190Z,33.70
2017-07-18T16:39:15.816Z,33.67
2017-07-18T16:58:16.089Z,32.95
2017-07-18T17:00:50.531Z,32.79
2017-07-18T17:03:19.495Z,32.58
2017-07-18T17:05:48.860Z,32.63
2017-07-18T17:08:16.864Z,32.69
2017-07-18T17:10:44.947Z,32.71
2017-07-18T17:13:13.136Z,32.70
2017-07-18T17:15:42.693Z,32.70
2017-07-18T17:18:10.894Z,32.73
2017-07-18T17:20:39.162Z,32.88
2017-07-18T17:23:07.332Z,32.64
2017-07-18T20:07:17.991Z,27.97
2017-07-18T20:09:45.608Z,27.91
2017-07-18T20:12:13.255Z,27.75
2017-07-18T20:14:40.872Z,27.66
2017-07-18T20:17:08.552Z,27.60
2017-07-18T20:19:36.178Z,27.52
2017-07-18T20:22:03.854Z,27.60
2017-07-18T20:24:31.451Z,27.64
2017-07-18T20:26:59.075Z,27.69
2017-07-18T20:29:26.674Z,27.76
2017-07-18T20:31:54.310Z,27.55
2017-07-18T20:34:21.957Z,27.38
2017-07-18T20:36:49.554Z,27.36
2017-07-18T20:39:17.222Z,27.40
2017-07-18T20:41:44.940Z,27.39
2017-07-18T20:44:12.558Z,27.31
2017-07-18T20:46:40.202Z,27.46
2017-07-18T20:49:47.142Z,27.52
2017-07-18T20:52:14.803Z,27.31
2017-07-18T20:54:42.398Z,27.45
2017-07-18T20:57:10.036Z,27.17
2017-07-18T20:59:37.703Z,27.03
2017-07-18T21:02:05.362Z,27.06
2017-07-18T21:04:33.002Z,27.20
2017-07-18T21:07:00.815Z,27.16
2017-07-18T21:09:28.643Z,27.06
2017-07-18T21:11:56.246Z,26.79
2017-07-18T21:14:24.049Z,26.71
2017-07-18T21:16:51.691Z,26.63
2017-07-18T21:19:19.400Z,26.43
2017-07-18T21:21:47.022Z,26.60
2017-07-18T21:24:14.651Z,26.56
2017-07-18T21:26:42.243Z,26.65
2017-07-18T21:29:09.881Z,26.59
2017-07-18T21:31:37.496Z,26.47
2017-07-18T21:34:05.074Z,26.33
2017-07-18T21:36:32.706Z,26.22
2017-07-18T21:39:00.435Z,26.10
2017-07-18T21:41:28.276Z,26.07
2017-07-18T21:43:55.884Z,26.00
2017-07-18T21:46:23.519Z,25.94
2017-07-18T21:48:51.123Z,25.95
2017-07-18T21:51:18.778Z,25.91
2017-07-18T21:53:46.380Z,25.93
2017-07-18T21:56:13.989Z,25.81
2017-07-18T21:58:41.634Z,25.73
2017-07-18T22:01:09.223Z,25.78
2017-07-18T22:03:36.839Z,25.65
2017-07-18T22:06:04.440Z,25.69
2017-07-18T22:08:32.094Z,25.66
2017-07-18T22:10:59.744Z,25.58
2017-07-18T22:13:27.331Z,25.53
2017-07-18T22:15:54.981Z,25.42
2017-07-18T22:18:22.571Z,25.32
2017-07-18T22:20:50.185Z,25.37
2017-07-18T22:23:17.786Z,25.41
2017-07-18T22:25:45.422Z,25.39
2017-07-18T22:28:13.026Z,25.39
2017-07-18T22:30:40.750Z,25.57
2017-07-18T22:33:08.350Z,25.54
2017-07-18T22:35:36.026Z,25.67
2017-07-18T22:38:03.631Z,25.71
2017-07-18T22:40:31.285Z,25.70
2017-07-18T22:42:58.882Z,25.53
2017-07-18T22:45:26.481Z,25.54
2017-07-18T22:47:54.106Z,25.52
2017-07-18T22:50:21.701Z,25.56
2017-07-18T22:52:49.334Z,25.65
2017-07-18T22:55:16.933Z,25.63
2017-07-18T22:57:44.578Z,25.60
2017-07-18T23:00:12.211Z,25.61
2017-07-18T23:02:39.829Z,25.62
2017-07-18T23:05:07.416Z,25.66
2017-07-18T23:07:35.068Z,25.63
2017-07-18T23:10:02.670Z,25.62
2017-07-18T23:12:30.342Z,25.66
2017-07-18T23:14:57.937Z,25.66
2017-07-18T23:17:25.590Z,25.61
2017-07-18T23:19:53.198Z,25.62
2017-07-18T23:22:20.790Z,25.60
2017-07-18T23:24:48.414Z,25.59
2017-07-18T23:27:16.010Z,25.62
2017-07-18T23:29:43.634Z,25.57
2017-07-18T23:32:11.226Z,25.51
2017-07-18T23:34:38.858Z,25.51
2017-07-18T23:37:06.443Z,25.51
2017-07-18T23:39:34.084Z,25.52
2017-07-18T23:42:01.718Z,25.53
2017-07-18T23:44:29.377Z,25.55
2017-07-18T23:46:56.973Z,25.50
2017-07-18T23:49:24.590Z,25.45
2017-07-18T23:51:52.220Z,25.48
2017-07-18T23:54:19.843Z,25.46
2017-07-18T23:56:47.498Z,25.39
2017-07-18T23:59:15.159Z,25.29
